createdAt,value
2019-05-13T00:00:19.067Z,101317.53
2019-05-13T00:02:50.796Z,101315.66
2019-05-13T00:05:23.371Z,101315.82
2019-05-13T00:07:54.877Z,101316.34
2019-05-13T00:10:26.424Z,101317.19
2019-05-13T00:12:59.484Z,101321.44
2019-05-13T00:15:30.826Z,101318.03
2019-05-13T00:18:04.038Z,101317.48
2019-05-13T00:20:35.392Z,101317.16
2019-05-13T00:23:06.818Z,101318.02
2019-05-13T00:25:38.307Z,101317.86
2019-05-13T00:28:09.840Z,101323.42
2019-05-13T00:30:41.382Z,101326.38
2019-05-13T00:33:13.933Z,101328.75
2019-05-13T00:35:45.426Z,101327.91
2019-05-13T00:38:17.994Z,101329.81
2019-05-13T00:40:49.271Z,101324.84
2019-05-13T00:43:20.675Z,101322.78
2019-05-13T00:45:53.307Z,101323.66
2019-05-13T00:48:24.758Z,101321.62
2019-05-13T00:50:56.259Z,101321.62
2019-05-13T00:53:27.554Z,101322.63
2019-05-13T00:55:59.019Z,101323.65
2019-05-13T00:58:30.328Z,101320.24
2019-05-13T01:01:03.606Z,101324.34
2019-05-13T01:03:34.844Z,101321.74
2019-05-13T01:06:06.302Z,101325.12
2019-05-13T01:08:37.662Z,101326.52
2019-05-13T01:11:09.097Z,101330.48
2019-05-13T01:13:40.481Z,101334.59
2019-05-13T01:16:13.975Z,101340.06
2019-05-13T01:18:45.108Z,101340.73
2019-05-13T01:21:16.543Z,101344.19
2019-05-13T01:23:48.007Z,101345.87
2019-05-13T01:26:19.343Z,101341.98
2019-05-13T01:28:50.795Z,101339.24
2019-05-13T01:31:23.826Z,101338.59
2019-05-13T01:33:55.463Z,101346.34
2019-05-13T01:36:27.016Z,101345.53
2019-05-13T01:38:59.984Z,101346.42
2019-05-13T01:41:33.395Z,101348.11
2019-05-13T01:44:04.600Z,101346.74
2019-05-13T01:46:35.999Z,101348.29
2019-05-13T01:49:07.430Z,101349.98
2019-05-13T01:51:38.693Z,101347.09
2019-05-13T01:54:14.234Z,101351.69
2019-05-13T01:56:45.707Z,101346.30
2019-05-13T01:59:17.116Z,101346.45
2019-05-13T02:01:48.527Z,101340.98
2019-05-13T02:04:19.850Z,101341.97
2019-05-13T02:06:51.261Z,101342.63
2019-05-13T02:09:24.473Z,101341.13
2019-05-13T02:11:55.316Z,101342.00
2019-05-13T02:14:26.463Z,101344.66
2019-05-13T02:16:57.886Z,101348.61
2019-05-13T02:19:29.336Z,101344.02
2019-05-13T02:22:03.967Z,101343.53
2019-05-13T02:24:35.004Z,101343.14
2019-05-13T02:27:06.306Z,101342.89
2019-05-13T02:29:37.789Z,101345.08
2019-05-13T02:32:09.043Z,101345.05
2019-05-13T02:34:43.752Z,101339.73
2019-05-13T02:37:13.524Z,101343.16
2019-05-13T02:39:44.825Z,101336.65
2019-05-13T02:42:16.785Z,101333.92
2019-05-13T02:44:48.255Z,101335.46
2019-05-13T02:47:22.553Z,101332.75
2019-05-13T02:49:53.903Z,101338.74
2019-05-13T02:52:25.272Z,101343.98
2019-05-13T02:54:56.721Z,101332.92
2019-05-13T02:57:28.099Z,101339.28
2019-05-13T03:00:03.705Z,101337.93
2019-05-13T03:02:32.926Z,101334.75
2019-05-13T03:05:08.284Z,101341.40
2019-05-13T03:07:42.564Z,101343.59
2019-05-13T03:10:14.095Z,101348.96
2019-05-13T03:12:45.360Z,101348.91
2019-05-13T03:15:17.219Z,101343.25
2019-05-13T03:17:54.330Z,101354.02
2019-05-13T03:20:25.773Z,101353.38
2019-05-13T03:22:57.273Z,101361.92
2019-05-13T03:25:28.675Z,101361.21
2019-05-13T03:28:03.079Z,101357.61
2019-05-13T03:30:35.478Z,101359.55
2019-05-13T03:33:10.859Z,101360.95
2019-05-13T03:35:45.725Z,101361.50
2019-05-13T03:38:14.918Z,101365.77
2019-05-13T03:40:48.101Z,101365.95
2019-05-13T03:43:22.930Z,101362.30
2019-05-13T03:45:55.788Z,101365.58
2019-05-13T03:48:27.148Z,101369.36
2019-05-13T03:50:58.648Z,101372.80
2019-05-13T03:53:32.540Z,101373.78
2019-05-13T03:56:03.021Z,101380.16
2019-05-13T03:58:34.297Z,101381.22
2019-05-13T04:01:05.886Z,101384.35
2019-05-13T04:03:37.376Z,101379.18
2019-05-13T04:06:08.888Z,101378.59
2019-05-13T04:08:43.250Z,101375.29
2019-05-13T04:11:13.660Z,101381.66
2019-05-13T04:13:45.068Z,101381.84
2019-05-13T04:16:16.444Z,101378.47
2019-05-13T04:18:47.968Z,101380.17
2019-05-13T04:21:22.588Z,101382.39
2019-05-13T04:23:53.349Z,101383.56
2019-05-13T04:26:25.044Z,101383.73
2019-05-13T04:28:56.462Z,101376.16
2019-05-13T04:31:27.908Z,101385.28
2019-05-13T04:34:02.108Z,101384.96
2019-05-13T04:36:32.100Z,101380.51
2019-05-13T04:39:05.207Z,101382.06
2019-05-13T04:41:36.692Z,101382.72
2019-05-13T04:44:08.024Z,101382.39
2019-05-13T04:46:43.038Z,101388.89
2019-05-13T04:49:12.637Z,101394.14
2019-05-13T04:51:43.749Z,101390.52
2019-05-13T04:54:15.093Z,101390.69
2019-05-13T04:56:46.531Z,101394.52
2019-05-13T04:59:17.873Z,101392.77
2019-05-13T05:02:37.290Z,101393.42
2019-05-13T05:05:26.677Z,101397.34
2019-05-13T05:08:13.261Z,101403.95
2019-05-13T05:11:13.038Z,101391.89
2019-05-13T05:14:19.149Z,101397.41
2019-05-13T05:17:22.294Z,101394.75
2019-05-13T05:20:18.158Z,101396.13
2019-05-13T05:23:04.300Z,101399.75
2019-05-13T05:26:15.217Z,101402.98
2019-05-13T05:29:07.677Z,101407.48
2019-05-13T05:31:48.211Z,101407.41
2019-05-13T05:34:51.970Z,101405.69
2019-05-13T05:37:44.262Z,101409.08
2019-05-13T05:40:30.917Z,101406.63
2019-05-13T05:42:52.440Z,101404.12
2019-05-13T05:45:24.141Z,101411.39
2019-05-13T05:48:01.557Z,101410.39
2019-05-13T05:50:35.587Z,101411.94
2019-05-13T05:53:07.127Z,101411.36
2019-05-13T05:55:41.610Z,101412.02
2019-05-13T05:58:14.526Z,101416.36
2019-05-13T06:00:48.364Z,101408.23
2019-05-13T06:03:21.937Z,101404.64
2019-05-13T06:05:53.252Z,101406.34
2019-05-13T06:08:24.811Z,101410.48
2019-05-13T06:10:56.130Z,101405.22
2019-05-13T06:13:27.476Z,101410.05
2019-05-13T06:15:58.914Z,101412.59
2019-05-13T06:18:32.482Z,101413.47
2019-05-13T06:21:03.417Z,101417.92
2019-05-13T06:23:34.943Z,101413.16
2019-05-13T06:26:06.343Z,101406.95
2019-05-13T06:28:37.791Z,101413.48
2019-05-13T06:31:09.110Z,101413.13
2019-05-13T06:33:42.198Z,101409.48
2019-05-13T06:36:13.052Z,101414.41
2019-05-13T06:38:44.106Z,101410.61
2019-05-13T06:41:15.522Z,101414.92
2019-05-13T06:43:46.963Z,101406.56
2019-05-13T06:46:18.628Z,101415.77
2019-05-13T06:48:52.078Z,101404.47
2019-05-13T06:51:23.163Z,101407.09
2019-05-13T06:53:54.549Z,101401.95
2019-05-13T06:56:26.080Z,101399.34
2019-05-13T06:58:57.581Z,101394.55
2019-05-13T07:01:29.133Z,101390.50
2019-05-13T07:04:02.413Z,101392.86
2019-05-13T07:06:33.130Z,101388.89
2019-05-13T07:09:06.455Z,101382.87
2019-05-13T07:11:37.801Z,101385.02
2019-05-13T07:14:12.358Z,101382.89
2019-05-13T07:16:42.846Z,101384.01
2019-05-13T07:19:14.243Z,101384.20
2019-05-13T07:21:45.693Z,101388.59
2019-05-13T07:24:17.071Z,101386.32
2019-05-13T07:26:48.494Z,101395.26
2019-05-13T07:29:20.477Z,101394.45
2019-05-13T07:31:52.648Z,101385.50
2019-05-13T07:34:24.860Z,101387.11
2019-05-13T07:36:56.367Z,101384.78
2019-05-13T07:39:28.272Z,101389.10
2019-05-13T07:42:02.689Z,101387.03
2019-05-13T07:44:32.592Z,101391.09
2019-05-13T07:47:04.404Z,101387.53
2019-05-13T07:49:35.737Z,101385.58
2019-05-13T07:52:07.468Z,101382.72
2019-05-13T07:54:41.513Z,101382.17
2019-05-13T07:57:12.475Z,101384.49
2019-05-13T07:59:43.939Z,101372.63
2019-05-13T08:02:15.492Z,101375.26
2019-05-13T08:04:49.391Z,101382.70
2019-05-13T08:07:22.441Z,101381.09
2019-05-13T08:09:55.717Z,101381.38
2019-05-13T08:12:25.266Z,101378.94
2019-05-13T08:14:56.725Z,101379.77
2019-05-13T08:17:28.385Z,101371.55
2019-05-13T08:20:02.622Z,101374.23
2019-05-13T08:22:32.263Z,101368.45
2019-05-13T08:25:03.495Z,101361.56
2019-05-13T08:27:35.314Z,101362.56
2019-05-13T08:30:08.648Z,101363.41
2019-05-13T08:32:41.884Z,101361.02
2019-05-13T08:35:13.594Z,101364.19
2019-05-13T08:37:44.943Z,101366.38
2019-05-13T08:40:19.971Z,101365.13
2019-05-13T08:42:51.931Z,101354.94
2019-05-13T08:45:22.462Z,101364.30
2019-05-13T08:47:53.741Z,101358.77
2019-05-13T08:50:25.227Z,101360.48
2019-05-13T08:52:56.681Z,101360.25
2019-05-13T08:55:28.130Z,101357.64
2019-05-13T08:58:01.625Z,101356.84
2019-05-13T09:00:48.503Z,101358.23
2019-05-13T09:03:21.517Z,101364.09
2019-05-13T09:05:54.566Z,101359.34
2019-05-13T09:08:26.610Z,101360.27
2019-05-13T09:10:58.008Z,101357.92
2019-05-13T09:13:29.383Z,101357.02
2019-05-13T09:16:02.441Z,101361.63
2019-05-13T09:18:34.142Z,101363.78
2019-05-13T09:21:05.603Z,101357.52
2019-05-13T09:23:36.955Z,101359.41
2019-05-13T09:26:08.388Z,101357.09
2019-05-13T09:28:41.710Z,101351.77
2019-05-13T09:31:12.773Z,101358.70
2019-05-13T09:33:43.883Z,101353.27
2019-05-13T09:36:15.558Z,101354.12
2019-05-13T09:38:46.937Z,101348.06
2019-05-13T09:41:21.325Z,101357.27
2019-05-13T09:43:51.728Z,101352.97
2019-05-13T09:46:23.109Z,101351.59
2019-05-13T09:49:11.518Z,101350.73
2019-05-13T09:51:27.468Z,101359.88
2019-05-13T09:54:01.136Z,101365.73
2019-05-13T09:56:31.926Z,101358.53
2019-05-13T09:59:03.414Z,101357.67
2019-05-13T10:01:34.817Z,101359.63
2019-05-13T10:04:06.567Z,101357.34
2019-05-13T10:06:38.060Z,101319.40
2019-05-13T10:09:09.500Z,101351.26
2019-05-13T10:11:41.022Z,101348.91
2019-05-13T10:14:12.506Z,101349.88
2019-05-13T10:16:43.826Z,101354.52
2019-05-13T10:19:15.184Z,101354.44
2019-05-13T10:21:46.488Z,101352.42
2019-05-13T10:24:19.058Z,101355.50
2019-05-13T10:26:51.513Z,101358.36
2019-05-13T10:29:23.499Z,101356.20
2019-05-13T10:31:54.911Z,101353.05
2019-05-13T10:34:26.383Z,101349.48
2019-05-13T10:36:58.331Z,101352.01
2019-05-13T10:39:29.862Z,101339.97
2019-05-13T10:42:03.687Z,101348.48
2019-05-13T10:44:33.669Z,101346.83
2019-05-13T10:47:04.968Z,101340.52
2019-05-13T10:49:36.360Z,101340.64
2019-05-13T10:52:07.844Z,101329.74
2019-05-13T10:54:41.089Z,101334.83
2019-05-13T10:57:13.761Z,101331.83
2019-05-13T10:59:45.385Z,101327.80
2019-05-13T11:02:16.852Z,101328.25
2019-05-13T11:04:48.211Z,101319.44
2019-05-13T11:07:22.257Z,101319.23
2019-05-13T11:09:52.975Z,101328.00
2019-05-13T11:12:28.530Z,101323.91
2019-05-13T11:14:57.505Z,101325.17
2019-05-13T11:17:30.902Z,101318.59
2019-05-13T11:20:03.471Z,101309.55
2019-05-13T11:22:34.426Z,101304.75
2019-05-13T11:25:06.715Z,101312.39
2019-05-13T11:27:38.050Z,101312.09
2019-05-13T11:30:09.845Z,101306.11
2019-05-13T11:32:42.734Z,101314.01
2019-05-13T11:35:15.954Z,101309.42
2019-05-13T11:37:47.519Z,101302.06
2019-05-13T11:40:19.155Z,101299.52
2019-05-13T11:42:52.617Z,101296.02
2019-05-13T11:45:23.843Z,101303.55
2019-05-13T11:47:55.372Z,101298.02
2019-05-13T11:50:26.825Z,101291.34
2019-05-13T11:52:59.077Z,101292.36
2019-05-13T11:55:30.421Z,101288.61
2019-05-13T11:58:02.867Z,101283.39
2019-05-13T12:00:46.100Z,101278.70
2019-05-13T12:03:17.880Z,101279.95
2019-05-13T12:05:49.434Z,101279.29
2019-05-13T12:08:22.740Z,101280.48
2019-05-13T12:10:53.833Z,101287.39
2019-05-13T12:13:25.369Z,101286.88
2019-05-13T12:15:57.148Z,101285.91
2019-05-13T12:18:28.643Z,101294.31
2019-05-13T12:21:03.512Z,101290.48
2019-05-13T12:23:32.392Z,101294.59
2019-05-13T12:26:05.139Z,101297.61
2019-05-13T12:28:36.911Z,101303.53
2019-05-13T12:31:08.332Z,101294.00
2019-05-13T12:33:43.799Z,101278.77
2019-05-13T12:36:17.877Z,101270.47
2019-05-13T12:38:45.161Z,101257.72
2019-05-13T12:41:16.515Z,101252.52
2019-05-13T12:43:47.927Z,101248.78
2019-05-13T12:46:19.721Z,101250.75
2019-05-13T12:48:51.186Z,101249.75
2019-05-13T12:51:22.913Z,101248.69
2019-05-13T12:53:54.458Z,101234.92
2019-05-13T12:56:26.103Z,101231.75
2019-05-13T12:58:57.500Z,101234.47
2019-05-13T13:01:28.964Z,101236.35
2019-05-13T13:04:02.216Z,101234.74
2019-05-13T13:06:40.595Z,101230.28
2019-05-13T13:09:07.506Z,101236.32
2019-05-13T13:11:38.985Z,101230.13
2019-05-13T13:14:15.112Z,101227.77
2019-05-13T13:16:43.537Z,101222.27
2019-05-13T13:19:15.323Z,101226.95
2019-05-13T13:21:46.751Z,101223.00
2019-05-13T13:24:18.241Z,101217.30
2019-05-13T13:26:52.566Z,101206.77
2019-05-13T13:29:23.092Z,101206.18
2019-05-13T13:31:55.807Z,101207.39
2019-05-13T13:34:28.679Z,101201.02
2019-05-13T13:37:00.183Z,101199.52
2019-05-13T13:39:31.953Z,101198.23
2019-05-13T13:42:05.861Z,101191.11
2019-05-13T13:44:38.700Z,101198.61
2019-05-13T13:47:14.666Z,101199.27
2019-05-13T13:49:44.023Z,101193.44
2019-05-13T13:52:17.877Z,101202.94
2019-05-13T13:54:58.938Z,101193.61
2019-05-13T13:57:25.609Z,101195.34
2019-05-13T14:00:21.027Z,101198.86
2019-05-13T14:02:28.581Z,101195.17
2019-05-13T14:05:04.884Z,101186.73
2019-05-13T14:07:37.842Z,101189.94
2019-05-13T14:10:07.419Z,101181.31
2019-05-13T14:12:41.548Z,101191.22
2019-05-13T14:15:13.729Z,101186.88
2019-05-13T14:17:45.174Z,101186.16
2019-05-13T14:20:16.759Z,101179.48
2019-05-13T14:22:48.273Z,101171.66
2019-05-13T14:25:22.235Z,101185.20
2019-05-13T14:27:52.794Z,101181.07
2019-05-13T14:30:24.314Z,101180.74
2019-05-13T14:32:56.062Z,101189.48
2019-05-13T14:35:27.585Z,101177.33
2019-05-13T14:37:58.905Z,101183.23
2019-05-13T14:40:31.972Z,101187.90
2019-05-13T14:43:03.691Z,101184.00
2019-05-13T14:45:35.967Z,101179.80
2019-05-13T14:48:07.371Z,101183.52
2019-05-13T14:50:38.717Z,101183.84
2019-05-13T14:53:10.303Z,101183.02
2019-05-13T14:55:42.063Z,101179.98
2019-05-13T14:58:13.788Z,101178.83
2019-05-13T15:00:45.332Z,101188.47
2019-05-13T15:03:17.125Z,101182.54
2019-05-13T15:05:48.668Z,101180.05
2019-05-13T15:08:23.226Z,101181.44
2019-05-13T15:10:54.921Z,101176.09
2019-05-13T15:13:31.330Z,101170.29
2019-05-13T15:16:05.349Z,101172.14
2019-05-13T15:18:36.764Z,101174.56
2019-05-13T15:21:08.370Z,101175.73
2019-05-13T15:23:41.860Z,101174.95
2019-05-13T15:26:12.770Z,101177.82
2019-05-13T15:28:44.092Z,101170.81
2019-05-13T15:31:15.461Z,101175.78
2019-05-13T15:33:52.134Z,101173.47
2019-05-13T15:36:22.847Z,101173.60
2019-05-13T15:38:56.176Z,101181.98
2019-05-13T15:41:27.860Z,101196.27
2019-05-13T15:44:03.198Z,101190.25
2019-05-13T15:46:32.439Z,101191.30
2019-05-13T15:49:03.830Z,101196.06
2019-05-13T15:51:37.322Z,101203.42
2019-05-13T15:54:08.875Z,101192.72
2019-05-13T15:56:40.326Z,101188.31
2019-05-13T15:59:12.578Z,101196.80
2019-05-13T16:01:44.996Z,101196.19
2019-05-13T16:04:18.682Z,101194.35
2019-05-13T16:06:52.138Z,101194.48
2019-05-13T16:09:23.710Z,101193.77
2019-05-13T16:11:55.158Z,101192.39
2019-05-13T16:14:26.613Z,101197.56
2019-05-13T16:16:57.881Z,101202.07
2019-05-13T16:19:35.650Z,101206.19
2019-05-13T16:22:07.301Z,101207.37
2019-05-13T16:24:41.299Z,101204.95
2019-05-13T16:27:12.162Z,101194.77
2019-05-13T16:29:43.888Z,101196.14
2019-05-13T16:32:15.520Z,101208.23
2019-05-13T16:34:46.925Z,101210.89
2019-05-13T16:37:18.375Z,101215.72
2019-05-13T16:39:52.008Z,101218.55
2019-05-13T16:42:22.873Z,101199.91
2019-05-13T16:44:54.397Z,101202.80
2019-05-13T16:47:28.623Z,101209.84
2019-05-13T16:50:02.697Z,101215.57
2019-05-13T16:52:34.317Z,101218.66
2019-05-13T16:55:07.570Z,101210.20
2019-05-13T16:57:42.312Z,101217.24
2019-05-13T17:00:14.442Z,101214.46
2019-05-13T17:02:46.089Z,101210.09
2019-05-13T17:05:18.009Z,101208.19
2019-05-13T17:07:51.538Z,101200.52
2019-05-13T17:10:23.056Z,101202.06
2019-05-13T17:12:54.387Z,101197.44
2019-05-13T17:15:26.601Z,101192.03
2019-05-13T17:18:09.285Z,101189.31
2019-05-13T17:20:35.351Z,101183.91
2019-05-13T17:23:08.368Z,101191.56
2019-05-13T17:25:42.135Z,101186.72
2019-05-13T17:28:14.293Z,101190.77
2019-05-13T17:30:45.757Z,101193.67
2019-05-13T17:33:18.631Z,101194.06
2019-05-13T17:35:50.076Z,101197.59
2019-05-13T17:38:21.886Z,101198.61
2019-05-13T17:40:53.328Z,101196.16
2019-05-13T17:43:26.256Z,101197.88
2019-05-13T17:45:57.707Z,101204.67
2019-05-13T17:48:32.094Z,101205.98
2019-05-13T17:51:02.269Z,101181.98
2019-05-13T17:53:33.784Z,101208.58
2019-05-13T17:56:06.788Z,101209.84
2019-05-13T17:58:38.198Z,101217.92
2019-05-13T18:01:12.465Z,101214.55
2019-05-13T18:03:43.877Z,101211.97
2019-05-13T18:06:15.218Z,101214.62
2019-05-13T18:08:48.397Z,101216.14
2019-05-13T18:11:22.017Z,101210.16
2019-05-13T18:13:55.004Z,101200.70
2019-05-13T18:16:26.491Z,101199.72
2019-05-13T18:18:58.104Z,101197.16
2019-05-13T18:21:31.976Z,101195.48
2019-05-13T18:24:03.747Z,101199.61
2019-05-13T18:26:35.338Z,101194.80
2019-05-13T18:29:06.853Z,101194.95
2019-05-13T18:31:38.230Z,101197.34
2019-05-13T18:34:12.025Z,101194.11
2019-05-13T18:36:45.932Z,101192.73
2019-05-13T18:39:17.418Z,101193.27
2019-05-13T18:41:48.769Z,101202.35
2019-05-13T18:44:20.128Z,101195.86
2019-05-13T18:46:52.429Z,101190.55
2019-05-13T18:49:23.915Z,101189.31
2019-05-13T18:51:55.186Z,101187.95
2019-05-13T18:54:26.566Z,101185.02
2019-05-13T18:56:57.972Z,101189.63
2019-05-13T18:59:29.464Z,101183.13
2019-05-13T19:02:01.689Z,101184.30
2019-05-13T19:04:34.215Z,101188.27
2019-05-13T19:07:07.769Z,101190.63
2019-05-13T19:09:41.666Z,101189.97
2019-05-13T19:12:12.693Z,101194.84
2019-05-13T19:14:44.300Z,101197.13
2019-05-13T19:17:15.786Z,101195.05
2019-05-13T19:19:47.388Z,101185.14
2019-05-13T19:22:21.285Z,101192.64
2019-05-13T19:24:52.224Z,101187.69
2019-05-13T19:27:23.580Z,101188.19
2019-05-13T19:29:54.880Z,101196.22
2019-05-13T19:32:26.277Z,101189.03
2019-05-13T19:34:57.757Z,101185.64
2019-05-13T19:37:31.603Z,101190.09
2019-05-13T19:40:02.441Z,101187.54
2019-05-13T19:42:34.336Z,101185.14
2019-05-13T19:45:05.987Z,101182.22
2019-05-13T19:47:37.500Z,101181.22
2019-05-13T19:50:08.996Z,101176.77
2019-05-13T19:52:41.503Z,101174.56
2019-05-13T19:55:13.049Z,101174.88
2019-05-13T19:57:44.669Z,101175.06
2019-05-13T20:00:16.588Z,101177.42
2019-05-13T20:02:47.970Z,101174.00
2019-05-13T20:05:21.103Z,101168.71
2019-05-13T20:07:52.582Z,101168.52
2019-05-13T20:10:23.881Z,101169.55
2019-05-13T20:12:55.440Z,101172.09
2019-05-13T20:15:26.889Z,101171.75
2019-05-13T20:17:58.361Z,101172.09
2019-05-13T20:20:31.752Z,101163.88
2019-05-13T20:23:02.482Z,101156.83
2019-05-13T20:25:33.696Z,101160.41
2019-05-13T20:28:05.288Z,101157.36
2019-05-13T20:30:36.912Z,101155.80
2019-05-13T20:33:08.234Z,101153.75
2019-05-13T20:35:41.529Z,101154.09
2019-05-13T20:38:12.667Z,101153.74
2019-05-13T20:40:44.095Z,101157.02
2019-05-13T20:43:15.480Z,101152.87
2019-05-13T20:45:46.849Z,101142.98
2019-05-13T20:48:18.187Z,101146.22
2019-05-13T20:50:51.910Z,101144.00
2019-05-13T20:53:23.466Z,101143.17
2019-05-13T20:55:54.909Z,101137.20
2019-05-13T20:58:26.358Z,101139.07
2019-05-13T21:00:57.812Z,101134.12
2019-05-13T21:03:31.395Z,101135.16
2019-05-13T21:06:02.453Z,101131.91
2019-05-13T21:08:33.904Z,101130.89
2019-05-13T21:11:05.354Z,101129.56
2019-05-13T21:13:36.600Z,101128.73
2019-05-13T21:16:07.910Z,101124.13
2019-05-13T21:18:39.231Z,101123.94
2019-05-13T21:21:11.710Z,101117.47
2019-05-13T21:23:43.283Z,101118.49
2019-05-13T21:26:15.718Z,101111.80
2019-05-13T21:28:47.359Z,101112.52
2019-05-13T21:31:21.499Z,101117.12
2019-05-13T21:33:53.162Z,101113.02
2019-05-13T21:36:24.503Z,101107.23
2019-05-13T21:38:55.954Z,101106.55
2019-05-13T21:41:27.375Z,101107.76
2019-05-13T21:44:01.180Z,101102.44
2019-05-13T21:46:31.918Z,101105.52
2019-05-13T21:49:03.408Z,101103.81
2019-05-13T21:51:34.722Z,101100.76
2019-05-13T21:54:07.224Z,101099.20
2019-05-13T21:56:39.128Z,101100.94
2019-05-13T21:59:10.498Z,101093.41
2019-05-13T22:01:42.457Z,101089.31
2019-05-13T22:04:14.258Z,101090.34
2019-05-13T22:06:45.784Z,101088.78
2019-05-13T22:09:17.218Z,101092.73
2019-05-13T22:11:51.133Z,101094.63
2019-05-13T22:14:22.703Z,101094.13
2019-05-13T22:16:56.524Z,101089.67
2019-05-13T22:19:27.087Z,101094.80
2019-05-13T22:21:58.446Z,101099.94
2019-05-13T22:24:31.187Z,101095.14
2019-05-13T22:27:02.882Z,101095.14
2019-05-13T22:29:34.294Z,101095.32
2019-05-13T22:32:05.623Z,101091.88
2019-05-13T22:34:37.022Z,101094.27
2019-05-13T22:37:08.417Z,101094.29
2019-05-13T22:39:41.918Z,101093.61
2019-05-13T22:42:12.971Z,101090.00
2019-05-13T22:44:44.475Z,101090.34
2019-05-13T22:47:15.913Z,101047.66
2019-05-13T22:49:47.208Z,101095.30
2019-05-13T22:52:18.699Z,101091.88
2019-05-13T22:54:51.814Z,101091.21
2019-05-13T22:57:23.307Z,101076.69
2019-05-13T22:59:54.460Z,101081.13
2019-05-13T23:02:25.908Z,101075.31
2019-05-13T23:04:57.375Z,101077.39
2019-05-13T23:07:31.427Z,101074.45
2019-05-13T23:10:02.028Z,101072.41
2019-05-13T23:12:33.449Z,101069.52
2019-05-13T23:15:06.745Z,101068.83
2019-05-13T23:17:37.473Z,101065.06
2019-05-13T23:20:08.728Z,101065.59
2019-05-13T23:22:41.429Z,101064.05
2019-05-13T23:25:13.482Z,101063.20
2019-05-13T23:27:44.991Z,101064.39
2019-05-13T23:30:16.527Z,101063.36
2019-05-13T23:32:47.845Z,101058.08
2019-05-13T23:35:21.532Z,101063.20
2019-05-13T23:37:52.307Z,101059.45
2019-05-13T23:40:23.708Z,101066.95
2019-05-13T23:42:57.245Z,101061.16
2019-05-13T23:45:28.661Z,101060.47
2019-05-13T23:48:01.555Z,101055.51
2019-05-13T23:50:35.261Z,101058.76
2019-05-13T23:53:06.804Z,101057.56
2019-05-13T23:55:38.269Z,101059.27
2019-05-13T23:58:12.571Z,101060.99
